createdAt,value
2024-05-09T00:01:22.198Z,16.00
2024-05-09T00:04:24.082Z,16.03
2024-05-09T00:07:25.940Z,16.05
2024-05-09T00:10:35.432Z,16.01
2024-05-09T00:13:39.727Z,16.03
2024-05-09T00:16:41.582Z,16.06
2024-05-09T00:19:44.001Z,16.16
2024-05-09T00:22:45.902Z,16.09
2024-05-09T00:25:47.851Z,16.09
2024-05-09T00:28:49.777Z,16.15
2024-05-09T00:31:51.714Z,16.35
2024-05-09T00:34:53.619Z,16.26
2024-05-09T00:37:55.565Z,16.21
2024-05-09T00:40:57.465Z,16.05
2024-05-09T00:44:00.144Z,16.12
2024-05-09T00:47:02.105Z,16.19
2024-05-09T00:50:07.593Z,16.22
2024-05-09T00:53:17.398Z,16.18
2024-05-09T00:56:22.186Z,16.07
2024-05-09T00:59:25.195Z,16.17
2024-05-09T01:02:28.788Z,16.21
2024-05-09T01:05:32.185Z,16.29
2024-05-09T01:08:34.288Z,16.29
2024-05-09T01:11:37.335Z,16.29
2024-05-09T01:14:39.278Z,16.18
2024-05-09T01:17:41.734Z,16.14
2024-05-09T01:20:45.229Z,16.34
2024-05-09T01:23:47.705Z,16.27
2024-05-09T01:26:50.377Z,16.32
2024-05-09T01:29:52.227Z,16.09
2024-05-09T01:32:54.280Z,16.13
2024-05-09T01:35:56.344Z,16.03
2024-05-09T01:38:58.601Z,15.86
2024-05-09T01:42:00.519Z,16.00
2024-05-09T01:45:02.365Z,16.03
2024-05-09T01:48:04.942Z,16.10
2024-05-09T01:51:07.067Z,16.05
2024-05-09T01:54:08.917Z,16.09
2024-05-09T01:57:10.813Z,15.87
2024-05-09T02:00:15.687Z,15.90
2024-05-09T02:03:21.052Z,15.91
2024-05-09T02:06:23.220Z,15.90
2024-05-09T02:09:25.863Z,15.79
2024-05-09T02:12:27.763Z,15.94
2024-05-09T02:15:29.648Z,16.00
2024-05-09T02:18:31.537Z,16.00
2024-05-09T02:21:34.342Z,15.96
2024-05-09T02:24:36.245Z,16.03
2024-05-09T02:27:38.071Z,15.96
2024-05-09T02:30:41.808Z,15.89
2024-05-09T02:33:44.632Z,15.95
2024-05-09T02:36:46.766Z,15.68
2024-05-09T02:39:48.648Z,15.82
2024-05-09T02:42:50.698Z,15.82
2024-05-09T02:45:52.535Z,15.76
2024-05-09T02:48:54.434Z,15.82
2024-05-09T02:51:56.279Z,15.70
2024-05-09T02:54:58.098Z,15.70
2024-05-09T02:58:00.127Z,15.61
2024-05-09T03:01:02.093Z,15.75
2024-05-09T03:04:05.400Z,15.71
2024-05-09T03:07:07.391Z,15.79
2024-05-09T03:10:18.240Z,15.79
2024-05-09T03:13:24.266Z,15.67
2024-05-09T03:16:26.094Z,15.60
2024-05-09T03:19:28.060Z,15.67
2024-05-09T03:22:29.935Z,15.76
2024-05-09T03:25:31.777Z,15.82
2024-05-09T03:28:33.580Z,15.61
2024-05-09T03:31:35.573Z,15.52
2024-05-09T03:34:40.364Z,15.66
2024-05-09T03:37:42.243Z,15.59
2024-05-09T03:40:45.995Z,15.71
2024-05-09T03:43:47.923Z,15.59
2024-05-09T03:46:49.740Z,15.68
2024-05-09T03:49:51.661Z,15.54
2024-05-09T03:52:54.593Z,15.57
2024-05-09T03:55:59.651Z,15.57
2024-05-09T03:59:01.660Z,15.70
2024-05-09T04:02:05.541Z,15.67
2024-05-09T04:05:08.580Z,15.46
2024-05-09T04:08:11.202Z,15.81
2024-05-09T04:11:13.502Z,15.76
2024-05-09T04:14:15.410Z,15.79
2024-05-09T04:17:17.287Z,15.90
2024-05-09T04:20:29.189Z,15.82
2024-05-09T04:23:39.451Z,15.76
2024-05-09T04:26:41.535Z,15.91
2024-05-09T04:29:43.373Z,15.76
2024-05-09T04:32:45.433Z,15.73
2024-05-09T04:35:49.474Z,15.87
2024-05-09T04:38:51.469Z,15.81
2024-05-09T04:41:53.476Z,15.78
2024-05-09T04:44:58.284Z,15.77
2024-05-09T04:48:01.274Z,15.95
2024-05-09T04:51:04.203Z,16.00
2024-05-09T04:54:08.381Z,15.84
2024-05-09T04:57:12.429Z,16.09
2024-05-09T05:00:18.079Z,16.12
2024-05-09T05:03:27.655Z,16.12
2024-05-09T05:06:30.286Z,16.16
2024-05-09T05:09:32.107Z,16.09
2024-05-09T05:12:52.723Z,16.17
2024-05-09T05:15:58.471Z,16.29
2024-05-09T05:19:00.806Z,16.35
2024-05-09T05:22:02.790Z,16.27
2024-05-09T05:25:04.976Z,16.39
2024-05-09T05:28:07.112Z,16.54
2024-05-09T05:31:08.938Z,16.36
2024-05-09T05:34:10.865Z,16.49
2024-05-09T05:37:12.724Z,16.53
2024-05-09T05:40:24.734Z,16.66
2024-05-09T05:43:30.375Z,16.65
2024-05-09T05:46:32.291Z,16.65
2024-05-09T05:49:34.631Z,16.56
2024-05-09T05:52:36.521Z,16.81
2024-05-09T05:55:42.848Z,16.94
2024-05-09T05:58:44.854Z,16.80
2024-05-09T06:01:47.672Z,16.83
2024-05-09T06:04:49.625Z,16.94
2024-05-09T06:07:51.622Z,17.01
2024-05-09T06:10:53.594Z,17.11
2024-05-09T06:13:55.487Z,17.24
2024-05-09T06:16:58.501Z,17.16
2024-05-09T06:20:00.571Z,17.26
2024-05-09T06:23:03.451Z,17.21
2024-05-09T06:26:05.476Z,17.35
2024-05-09T06:29:07.716Z,17.21
2024-05-09T06:32:09.684Z,17.39
2024-05-09T06:35:11.643Z,17.20
2024-05-09T06:38:13.668Z,17.23
2024-05-09T06:41:15.658Z,17.54
2024-05-09T06:44:17.589Z,17.62
2024-05-09T06:47:19.552Z,17.49
2024-05-09T06:50:24.314Z,17.47
2024-05-09T06:53:29.845Z,17.38
2024-05-09T06:56:31.843Z,17.68
2024-05-09T06:59:33.856Z,17.71
2024-05-09T07:02:35.951Z,17.92
2024-05-09T07:05:38.138Z,18.01
2024-05-09T07:08:41.167Z,18.41
2024-05-09T07:11:43.155Z,18.79
2024-05-09T07:14:45.183Z,18.69
2024-05-09T07:17:47.202Z,19.07
2024-05-09T07:20:50.234Z,19.16
2024-05-09T07:23:52.729Z,19.18
2024-05-09T07:26:54.745Z,19.48
2024-05-09T07:29:57.852Z,19.68
2024-05-09T07:33:00.174Z,19.64
2024-05-09T07:36:02.442Z,19.86
2024-05-09T07:39:05.769Z,20.04
2024-05-09T07:42:07.739Z,20.04
2024-05-09T07:45:24.160Z,20.33
2024-05-09T07:50:01.413Z,20.43
2024-05-09T07:53:21.157Z,20.37
2024-05-09T07:55:15.504Z,20.66
2024-05-09T07:58:17.511Z,20.56
2024-05-09T08:01:20.545Z,20.17
2024-05-09T08:04:23.691Z,20.49
2024-05-09T08:07:29.178Z,20.86
2024-05-09T08:10:31.081Z,21.00
2024-05-09T08:13:32.977Z,21.17
2024-05-09T08:16:34.871Z,20.70
2024-05-09T08:19:37.797Z,20.65
2024-05-09T08:22:39.690Z,20.47
2024-05-09T08:25:41.514Z,20.55
2024-05-09T08:28:43.345Z,20.81
2024-05-09T08:31:45.248Z,20.92
2024-05-09T08:34:47.230Z,21.02
2024-05-09T08:37:50.039Z,21.62
2024-05-09T08:40:52.408Z,22.01
2024-05-09T08:43:54.629Z,21.90
2024-05-09T08:46:56.981Z,22.07
2024-05-09T08:50:03.163Z,22.07
2024-05-09T08:53:06.549Z,22.37
2024-05-09T08:56:11.842Z,22.49
2024-05-09T08:59:21.221Z,22.59
2024-05-09T09:02:24.428Z,22.82
2024-05-09T09:05:31.758Z,22.47
2024-05-09T09:08:34.058Z,22.71
2024-05-09T09:11:35.948Z,22.82
2024-05-09T09:14:37.796Z,23.18
2024-05-09T09:17:39.795Z,23.25
2024-05-09T09:20:42.228Z,23.04
2024-05-09T09:23:44.075Z,23.04
2024-05-09T09:26:45.882Z,23.41
2024-05-09T09:29:48.804Z,23.38
2024-05-09T09:32:50.714Z,23.34
2024-05-09T09:35:52.616Z,23.41
2024-05-09T09:38:56.692Z,23.38
2024-05-09T09:42:03.160Z,23.59
2024-05-09T09:45:06.876Z,23.78
2024-05-09T09:48:10.613Z,23.86
2024-05-09T09:51:15.118Z,23.76
2024-05-09T09:54:18.464Z,23.95
2024-05-09T09:57:21.545Z,24.08
2024-05-09T10:00:32.493Z,24.03
2024-05-09T10:03:36.021Z,23.99
2024-05-09T10:06:48.842Z,24.42
2024-05-09T10:09:56.206Z,24.37
2024-05-09T10:13:05.414Z,24.60
2024-05-09T10:16:11.505Z,24.32
2024-05-09T10:19:27.176Z,24.40
2024-05-09T10:22:29.837Z,24.43
2024-05-09T10:25:31.914Z,24.70
2024-05-09T10:28:36.908Z,24.62
2024-05-09T10:31:42.051Z,24.71
2024-05-09T10:34:47.167Z,25.05
2024-05-09T10:37:51.134Z,24.85
2024-05-09T10:40:57.059Z,25.00
2024-05-09T10:43:58.893Z,24.66
2024-05-09T10:47:00.823Z,24.99
2024-05-09T10:50:04.844Z,25.04
2024-05-09T10:53:07.829Z,25.16
2024-05-09T10:56:10.404Z,25.18
2024-05-09T10:59:12.903Z,25.58
2024-05-09T11:02:17.296Z,25.61
2024-05-09T11:05:19.920Z,25.44
2024-05-09T11:08:23.728Z,25.75
2024-05-09T11:11:26.690Z,25.87
2024-05-09T11:14:28.630Z,25.91
2024-05-09T11:17:37.206Z,25.93
2024-05-09T11:20:39.161Z,25.89
2024-05-09T11:23:41.698Z,25.80
2024-05-09T11:26:43.659Z,25.74
2024-05-09T11:29:47.408Z,25.97
2024-05-09T11:32:49.939Z,26.13
2024-05-09T11:35:51.864Z,26.20
2024-05-09T11:38:53.740Z,26.42
2024-05-09T11:41:55.594Z,26.56
2024-05-09T11:44:57.507Z,26.61
2024-05-09T11:47:59.415Z,26.70
2024-05-09T11:51:01.316Z,26.54
2024-05-09T11:54:03.182Z,26.82
2024-05-09T11:57:05.182Z,26.98
2024-05-09T12:00:09.628Z,27.03
2024-05-09T12:03:13.804Z,27.20
2024-05-09T12:06:15.868Z,27.43
2024-05-09T12:09:18.286Z,27.70
2024-05-09T12:12:20.128Z,27.63
2024-05-09T12:15:22.001Z,27.57
2024-05-09T12:18:24.043Z,27.65
2024-05-09T12:21:26.103Z,27.64
2024-05-09T12:24:30.602Z,27.69
2024-05-09T12:27:32.666Z,28.06
2024-05-09T12:30:38.798Z,27.74
2024-05-09T12:33:42.687Z,27.85
2024-05-09T12:36:44.693Z,27.87
2024-05-09T12:39:46.639Z,28.01
2024-05-09T12:42:49.957Z,27.80
2024-05-09T12:45:51.869Z,27.78
2024-05-09T12:48:54.047Z,28.05
2024-05-09T12:51:56.192Z,28.19
2024-05-09T12:54:58.065Z,28.32
2024-05-09T12:57:59.988Z,28.17
2024-05-09T13:01:02.107Z,28.50
2024-05-09T13:04:04.495Z,28.45
2024-05-09T13:07:08.025Z,28.67
2024-05-09T13:10:13.923Z,28.43
2024-05-09T13:13:18.367Z,28.12
2024-05-09T13:16:20.465Z,28.39
2024-05-09T13:19:22.577Z,28.60
2024-05-09T13:22:24.545Z,28.76
2024-05-09T13:25:26.406Z,29.17
2024-05-09T13:28:28.493Z,29.06
2024-05-09T13:31:30.473Z,28.98
2024-05-09T13:34:32.447Z,29.12
2024-05-09T13:37:34.499Z,28.61
2024-05-09T13:40:36.794Z,28.73
2024-05-09T13:43:38.934Z,29.02
2024-05-09T13:46:42.045Z,29.20
2024-05-09T13:49:44.079Z,29.45
2024-05-09T13:52:46.139Z,29.64
2024-05-09T13:55:48.762Z,29.54
2024-05-09T13:58:51.229Z,30.04
2024-05-09T14:01:53.127Z,29.53
2024-05-09T14:04:55.138Z,29.50
2024-05-09T14:07:57.769Z,29.74
2024-05-09T14:10:59.744Z,29.55
2024-05-09T14:14:02.041Z,29.75
2024-05-09T14:17:04.028Z,29.84
2024-05-09T14:20:09.605Z,30.19
2024-05-09T14:23:14.972Z,30.26
2024-05-09T14:26:17.602Z,29.98
2024-05-09T14:29:19.522Z,30.23
2024-05-09T14:32:21.587Z,30.46
2024-05-09T14:35:23.481Z,30.32
2024-05-09T14:38:27.568Z,30.67
2024-05-09T14:41:29.446Z,30.51
2024-05-09T14:44:31.313Z,30.92
2024-05-09T14:47:33.661Z,30.30
2024-05-09T14:50:38.846Z,31.40
2024-05-09T14:53:42.388Z,30.67
2024-05-09T14:56:44.393Z,31.15
2024-05-09T14:59:46.203Z,30.74
2024-05-09T15:02:49.911Z,31.13
2024-05-09T15:05:52.417Z,32.11
2024-05-09T15:08:57.086Z,32.04
2024-05-09T15:11:58.955Z,32.09
2024-05-09T15:15:00.786Z,31.75
2024-05-09T15:18:04.922Z,31.32
2024-05-09T15:21:07.040Z,31.66
2024-05-09T15:24:08.925Z,30.89
2024-05-09T15:27:13.061Z,31.41
2024-05-09T15:30:18.133Z,31.32
2024-05-09T15:33:22.590Z,31.32
2024-05-09T15:36:24.603Z,31.15
2024-05-09T15:39:30.155Z,30.83
2024-05-09T15:42:32.020Z,30.06
2024-05-09T15:45:34.647Z,30.91
2024-05-09T15:48:37.178Z,30.19
2024-05-09T15:51:39.738Z,30.73
2024-05-09T15:54:41.618Z,30.01
2024-05-09T15:57:46.114Z,30.33
2024-05-09T16:00:50.498Z,30.47
2024-05-09T16:03:53.993Z,30.50
2024-05-09T16:06:56.124Z,30.72
2024-05-09T16:09:58.790Z,30.65
2024-05-09T16:13:00.838Z,29.75
2024-05-09T16:16:04.136Z,30.14
2024-05-09T16:19:06.261Z,29.80
2024-05-09T16:22:08.216Z,29.74
2024-05-09T16:25:10.235Z,29.55
2024-05-09T16:28:12.479Z,28.39
2024-05-09T16:31:14.452Z,28.79
2024-05-09T16:34:17.757Z,29.18
2024-05-09T16:37:19.724Z,29.30
2024-05-09T16:40:29.799Z,28.99
2024-05-09T16:43:38.555Z,28.73
2024-05-09T16:46:42.861Z,28.70
2024-05-09T16:49:44.983Z,28.62
2024-05-09T16:52:46.788Z,28.60
2024-05-09T16:55:48.827Z,28.47
2024-05-09T16:58:50.953Z,28.17
2024-05-09T17:01:52.900Z,28.03
2024-05-09T17:04:54.807Z,27.56
2024-05-09T17:07:57.339Z,27.21
2024-05-09T17:10:59.348Z,27.19
2024-05-09T17:14:01.496Z,26.73
2024-05-09T17:17:03.569Z,26.57
2024-05-09T17:20:08.578Z,26.27
2024-05-09T17:23:14.766Z,25.91
2024-05-09T17:26:17.062Z,25.67
2024-05-09T17:29:21.601Z,25.24
2024-05-09T17:32:23.606Z,25.17
2024-05-09T17:35:25.490Z,24.64
2024-05-09T17:38:27.404Z,24.39
2024-05-09T17:41:29.218Z,23.90
2024-05-09T17:44:31.094Z,24.13
2024-05-09T17:47:36.104Z,23.84
2024-05-09T17:50:38.561Z,23.76
2024-05-09T17:53:40.561Z,23.58
2024-05-09T17:56:42.413Z,23.24
2024-05-09T17:59:44.840Z,22.96
2024-05-09T18:02:46.711Z,22.76
2024-05-09T18:05:48.782Z,22.83
2024-05-09T18:08:50.809Z,22.43
2024-05-09T18:11:52.650Z,22.24
2024-05-09T18:14:54.688Z,22.05
2024-05-09T18:17:56.889Z,21.78
2024-05-09T18:20:58.889Z,21.61
2024-05-09T18:24:00.728Z,21.39
2024-05-09T18:27:02.970Z,21.05
2024-05-09T18:30:09.430Z,20.83
2024-05-09T18:33:14.052Z,20.62
2024-05-09T18:36:16.178Z,20.51
2024-05-09T18:39:17.983Z,20.03
2024-05-09T18:42:19.906Z,19.83
2024-05-09T18:45:21.768Z,19.86
2024-05-09T18:48:23.722Z,19.51
2024-05-09T18:51:25.757Z,19.35
2024-05-09T18:54:27.585Z,19.18
2024-05-09T18:57:29.475Z,18.90
2024-05-09T19:00:35.954Z,18.59
2024-05-09T19:03:40.926Z,18.55
2024-05-09T19:06:43.118Z,18.51
2024-05-09T19:09:45.523Z,18.11
2024-05-09T19:12:47.454Z,17.92
2024-05-09T19:15:49.371Z,17.85
2024-05-09T19:18:51.708Z,17.78
2024-05-09T19:21:54.011Z,17.59
2024-05-09T19:24:58.550Z,17.39
2024-05-09T19:28:01.220Z,17.38
2024-05-09T19:31:03.553Z,17.09
2024-05-09T19:34:05.483Z,16.86
2024-05-09T19:37:07.632Z,16.91
2024-05-09T19:40:14.876Z,16.92
2024-05-09T19:43:23.154Z,16.57
2024-05-09T19:46:25.654Z,16.60
2024-05-09T19:49:27.724Z,16.50
2024-05-09T19:52:29.656Z,16.43
2024-05-09T19:55:31.519Z,16.26
2024-05-09T19:58:33.555Z,16.04
2024-05-09T20:01:35.656Z,16.02
2024-05-09T20:04:37.691Z,15.99
2024-05-09T20:07:39.637Z,15.88
2024-05-09T20:10:41.573Z,15.99
2024-05-09T20:13:43.459Z,15.81
2024-05-09T20:16:45.254Z,15.42
2024-05-09T20:19:47.183Z,15.56
2024-05-09T20:22:49.077Z,15.48
2024-05-09T20:25:50.896Z,15.48
2024-05-09T20:28:52.778Z,15.30
2024-05-09T20:31:54.620Z,15.28
2024-05-09T20:34:56.976Z,15.33
2024-05-09T20:37:59.235Z,15.28
2024-05-09T20:41:01.290Z,15.29
2024-05-09T20:44:03.621Z,15.29
2024-05-09T20:47:05.553Z,15.13
2024-05-09T20:50:13.677Z,15.22
2024-05-09T20:53:22.190Z,15.12
2024-05-09T20:56:25.073Z,15.07
2024-05-09T20:59:26.907Z,15.00
2024-05-09T21:02:28.928Z,14.86
2024-05-09T21:05:30.950Z,14.79
2024-05-09T21:08:32.838Z,14.77
2024-05-09T21:11:34.707Z,14.71
2024-05-09T21:14:36.637Z,14.59
2024-05-09T21:17:38.478Z,14.44
2024-05-09T21:20:40.434Z,14.26
2024-05-09T21:23:42.319Z,14.28
2024-05-09T21:26:44.564Z,14.13
2024-05-09T21:29:46.381Z,14.11
2024-05-09T21:32:48.409Z,14.03
2024-05-09T21:35:50.424Z,13.96
2024-05-09T21:38:52.300Z,13.85
2024-05-09T21:41:54.109Z,13.93
2024-05-09T21:44:55.984Z,13.70
2024-05-09T21:47:58.016Z,13.77
2024-05-09T21:50:59.940Z,13.54
2024-05-09T21:54:01.777Z,13.50
2024-05-09T21:57:06.513Z,13.35
2024-05-09T22:00:24.861Z,13.43
2024-05-09T22:03:34.577Z,13.38
2024-05-09T22:06:36.617Z,13.26
2024-05-09T22:09:40.255Z,13.23
2024-05-09T22:12:42.232Z,13.13
2024-05-09T22:15:44.099Z,13.09
2024-05-09T22:18:46.159Z,13.05
2024-05-09T22:21:49.158Z,12.88
2024-05-09T22:24:51.123Z,12.77
2024-05-09T22:27:52.969Z,12.86
2024-05-09T22:30:55.550Z,12.76
2024-05-09T22:33:57.603Z,12.81
2024-05-09T22:36:59.645Z,12.70
2024-05-09T22:40:03.950Z,12.50
2024-05-09T22:43:07.305Z,12.50
2024-05-09T22:46:09.208Z,12.46
2024-05-09T22:49:11.222Z,12.33
2024-05-09T22:52:13.319Z,12.20
2024-05-09T22:55:15.331Z,12.17
2024-05-09T22:58:18.144Z,12.24
2024-05-09T23:01:20.834Z,12.27
2024-05-09T23:04:23.377Z,12.05
2024-05-09T23:07:25.345Z,12.14
2024-05-09T23:10:32.628Z,12.08
2024-05-09T23:13:38.355Z,11.60
2024-05-09T23:16:40.231Z,11.55
2024-05-09T23:19:42.920Z,11.50
2024-05-09T23:22:46.213Z,11.64
2024-05-09T23:25:49.466Z,11.45
2024-05-09T23:28:51.254Z,11.59
2024-05-09T23:31:53.440Z,11.56
2024-05-09T23:34:55.412Z,11.46
2024-05-09T23:37:57.340Z,11.52
2024-05-09T23:40:59.207Z,11.45
2024-05-09T23:44:01.053Z,11.39
2024-05-09T23:47:03.312Z,11.43
2024-05-09T23:50:13.745Z,11.34
2024-05-09T23:53:18.399Z,11.44
2024-05-09T23:56:21.597Z,11.48
2024-05-09T23:59:23.438Z,11.33
